Latest Weather Observations for Macquarie Island

IDT60801

Issued at 9:35 am EST Wednesday 3 September 2014 (issued every 30 minutes, with the page automatically refreshed every 10 minutes)

About weather observations | Map of weather stations | Latest weather observations for TAS | Other Formats
Station Details ID: 300004 Name: MACQUARIE ISLAND Lat: -54.50 Lon: 158.94 Height: 6.0 m
Data from the previous 72 hours. | See also: Recent months at Macquarie Island
Date/Time
EST
Temp
°C
App
Temp
°C
Dew
Point
Rel
Hum
%
Delta-T
°C
Wind Press
QNH
hPa
Press
MSL
hPa
Rain
since 9 am
mm
Dir
 
Spd
km/h
Gust
km/h
Spd
kts
Gust
kts
03/09:30am 2.1 -5.2 0.0 86 0.8 W 28 41 15 22 1004.6 - 0.0
03/09:00am 2.4 -7.1 -0.7 80 1.1 W 39 50 21 27 1004.4 1004.7 1.8
03/08:32am 2.4 -6.5 -1.9 73 1.5 W 35 54 19 29 1003.9 - 1.8
03/08:30am 2.3 -7.1 -2.6 70 1.7 W 37 54 20 29 1004.0 - 1.8
03/08:08am 2.3 -6.6 -1.7 75 1.4 W 35 54 19 29 1003.5 - 1.8
03/08:00am 2.1 -7.9 -1.9 75 1.4 W 41 54 22 29 1003.6 - 1.8
03/07:30am 1.9 -7.8 -2.1 75 1.4 W 39 69 21 37 1003.0 - 1.8
03/07:00am 1.7 -8.8 -1.4 80 1.1 W 44 65 24 35 1002.4 - 1.8
03/06:30am 1.9 -8.5 -1.7 77 1.3 W 43 72 23 39 1001.7 - 1.8
03/06:18am 1.8 -8.7 -0.9 82 1.0 W 44 63 24 34 1001.6 - 1.8
03/06:00am 2.1 -8.8 -1.2 79 1.2 W 46 59 25 32 1001.5 1001.8 1.8
03/05:31am 1.5 -10.1 -0.9 84 0.9 W 50 80 27 43 1001.1 - 1.8
03/05:30am 1.6 -10.0 -0.6 85 0.8 W 50 63 27 34 1001.1 - 1.8
03/05:15am 1.7 -9.1 -0.7 84 0.9 W 46 65 25 35 1000.7 - 1.8
03/05:00am 2.2 -8.8 -1.8 75 1.4 W 46 63 25 34 1000.5 - 1.6
03/04:50am 1.7 -9.2 -0.9 83 0.9 WSW 46 65 25 35 1000.3 - 1.6
03/04:30am 2.1 -9.1 -1.0 80 1.1 W 48 65 26 35 999.9 - 1.6
03/04:17am 1.9 -8.9 -0.3 85 0.8 W 46 65 25 35 999.9 - 1.6
03/04:00am 1.9 -9.3 -0.8 82 1.0 W 48 65 26 35 999.6 - 1.6
03/03:30am 1.5 -9.7 -0.9 84 0.9 WSW 48 70 26 38 999.4 - 1.6
03/03:00am 2.3 -9.7 -1.3 77 1.3 W 52 70 28 38 998.8 999.1 1.4
03/02:32am 2.4 -10.0 -1.0 78 1.2 W 54 72 29 39 998.4 - 1.4
03/02:30am 2.5 -9.9 -0.8 79 1.2 W 54 69 29 37 998.3 - 1.4
03/02:00am 3.4 -8.3 1.0 84 0.9 W 52 65 28 35 997.5 - 1.4
03/01:30am 4.1 -8.2 2.1 87 0.8 W 56 67 30 36 997.0 - 1.4
03/01:12am 4.2 -6.9 2.7 90 0.6 W 50 69 27 37 996.4 - 1.4
03/01:00am 4.0 -8.5 2.0 87 0.8 W 57 70 31 38 996.2 - 1.4
03/12:45am 4.2 -7.7 2.2 87 0.8 W 54 72 29 39 996.4 - 1.4
03/12:30am 4.2 -8.3 2.1 86 0.8 W 57 70 31 38 996.2 - 1.4
03/12:20am 4.4 -7.8 2.4 87 0.8 W 56 65 30 35 996.1 - 1.4
03/12:00am 4.9 -8.6 3.1 88 0.7 WNW 63 78 34 42 995.6 995.9 1.4
 
Date/Time
EST
Temp
°C
App
Temp
°C
Dew
Point
Rel
Hum
%
Delta-T
°C
Wind Press
QNH
hPa
Press
MSL
hPa
Rain
since 9 am
mm
Dir
 
Spd
km/h
Gust
km/h
Spd
kts
Gust
kts
02/11:52pm 5.1 -9.1 3.3 88 0.7 WNW 67 78 36 42 995.3 - 1.4
02/11:34pm 5.2 -8.6 3.5 89 0.7 NNW 65 83 35 45 995.0 - 1.4
02/11:30pm 5.1 -9.1 3.4 89 0.7 NNW 67 83 36 45 994.9 - 1.4
02/11:00pm 5.0 -8.1 3.2 88 0.7 NNW 61 80 33 43 995.2 - 1.0
02/10:37pm 5.1 -7.6 3.1 87 0.8 NNW 59 80 32 43 995.5 - 0.6
02/10:30pm 5.1 -8.0 3.1 87 0.8 NNW 61 78 33 42 995.9 - 0.6
02/10:10pm 5.1 -8.0 2.8 85 0.9 NNW 61 82 33 44 996.3 - 0.6
02/10:00pm 5.1 -8.4 3.0 86 0.9 NNW 63 76 34 41 996.5 - 0.6
02/09:30pm 4.9 -9.4 2.6 85 0.9 NNW 67 80 36 43 996.8 - 0.6
02/09:03pm 4.8 -7.4 2.5 85 0.9 NNW 56 74 30 40 996.8 - 0.6
02/09:00pm 4.9 -7.5 2.8 86 0.9 NNW 57 72 31 39 997.0 997.3 0.6
02/08:39pm 4.8 -7.5 2.3 84 1.0 NNW 56 74 30 40 997.1 - 0.6
02/08:30pm 4.8 -7.0 2.5 85 0.9 NNW 54 69 29 37 997.3 - 0.6
02/08:00pm 4.5 -8.0 1.9 83 1.0 NNW 57 69 31 37 997.6 - 0.6
02/07:30pm 4.4 -7.6 1.4 81 1.2 NNW 54 65 29 35 997.8 - 0.6
02/07:17pm 4.2 -7.8 1.4 82 1.1 NNW 54 61 29 33 997.9 - 0.6
02/07:00pm 4.2 -7.0 1.7 84 1.0 WNW 50 63 27 34 998.2 - 0.6
02/06:30pm 3.6 -7.7 1.0 83 1.0 WNW 50 61 27 33 998.1 - 0.6
02/06:00pm 3.7 -8.1 0.7 81 1.2 W 52 67 28 36 997.9 998.2 0.6
02/05:44pm 3.9 -7.5 0.6 79 1.3 W 50 69 27 37 997.9 - 0.6
02/05:30pm 3.9 -8.9 0.4 78 1.3 W 57 72 31 39 997.7 - 0.6
02/05:00pm 3.7 -8.5 0.1 77 1.4 W 54 70 29 38 997.5 - 0.6
02/04:31pm 3.3 -10.4 -1.1 73 1.6 W 61 80 33 43 997.2 - 0.6
02/04:30pm 3.4 -10.6 -0.6 75 1.5 W 63 80 34 43 997.2 - 0.6
02/04:23pm 3.4 -9.5 -0.8 74 1.5 W 57 76 31 41 997.0 - 0.6
02/04:00pm 3.3 -9.5 -0.9 74 1.5 W 56 72 30 39 997.0 - 0.6
02/03:56pm 3.1 -9.3 -1.3 73 1.6 W 54 72 29 39 997.0 - 0.6
02/03:30pm 3.2 -10.1 -0.8 75 1.5 WNW 59 72 32 39 996.8 - 0.6
02/03:00pm 3.4 -9.3 -0.8 74 1.5 WNW 56 69 30 37 996.5 996.8 0.6
02/02:30pm 3.3 -10.0 -0.9 74 1.5 WNW 59 74 32 40 996.6 - 0.6
02/02:00pm 3.4 -9.2 -0.1 78 1.3 W 56 74 30 40 996.3 - 0.6
02/01:58pm 3.4 -9.2 -0.1 78 1.3 W 56 74 30 40 996.3 - 0.6
02/01:30pm 3.3 -9.3 0.0 79 1.2 W 56 72 30 39 996.3 - 0.4
02/01:00pm 3.7 -9.1 0.4 79 1.2 W 57 72 31 39 995.9 - 0.4
02/12:43pm 3.4 -9.2 1.1 85 0.9 WNW 57 89 31 48 995.7 - 0.4
02/12:30pm 3.2 -8.0 1.7 90 0.6 W 50 65 27 35 996.1 - 0.4
02/12:00pm 4.3 -8.5 0.1 74 1.6 WNW 57 76 31 41 995.6 995.9 0.2
02/11:30am 4.3 -8.8 0.6 77 1.4 W 59 72 32 39 995.7 - 0.2
02/11:15am 3.6 -8.9 1.0 83 1.0 WNW 56 76 30 41 995.6 - 0.2
02/11:00am 4.0 -8.5 1.0 81 1.2 WNW 56 69 30 37 995.7 - 0.2
02/10:51am 3.8 -8.6 1.2 83 1.0 W 56 74 30 40 995.7 - 0.2
02/10:30am 3.6 -9.0 1.2 84 0.9 WNW 57 72 31 39 995.4 - 0.0
02/10:28am 4.0 -8.1 1.0 81 1.2 WNW 54 72 29 39 995.3 - 0.0
02/10:00am 4.1 -8.0 0.8 79 1.3 WNW 54 65 29 35 995.4 - 0.0
02/09:30am 4.4 -8.7 0.4 75 1.5 WNW 59 70 32 38 995.2 - 0.0
02/09:18am 4.7 -8.0 0.7 75 1.5 WNW 57 76 31 41 995.1 - 0.0
02/09:00am 4.2 -8.6 0.4 76 1.5 WNW 57 72 31 39 995.2 995.5 18.8
02/08:46am 4.5 -8.1 1.2 79 1.3 WNW 57 76 31 41 995.1 - 18.8
02/08:30am 4.2 -8.2 1.6 83 1.0 WNW 56 69 30 37 994.9 - 18.8
02/08:15am 3.9 -7.7 1.8 86 0.8 WNW 52 72 28 39 995.0 - 18.8
02/08:04am 4.0 -8.5 2.0 87 0.8 WNW 57 63 31 34 994.9 - 18.8
02/08:00am 4.3 -8.6 2.0 85 0.9 NW 59 74 32 40 994.6 - 18.8
02/07:40am 4.4 -8.1 1.9 84 1.0 NW 57 65 31 35 994.4 - 18.8
02/07:30am 4.4 -7.5 2.4 87 0.8 N 54 67 29 36 994.5 - 18.8
02/07:10am 4.4 -7.9 2.3 86 0.8 NNW 56 67 30 36 994.4 - 18.8
02/07:01am 4.2 -9.0 2.2 87 0.8 N 61 70 33 38 994.3 - 18.8
02/07:00am 4.3 -6.8 2.2 86 0.8 NNW 50 74 27 40 994.3 - 18.8
02/06:48am 5.0 -5.4 2.2 82 1.1 NNW 46 65 25 35 994.3 - 18.8
02/06:30am 5.0 -6.6 1.7 79 1.3 NNW 52 63 28 34 994.3 - 18.8
02/06:16am 4.9 -6.7 1.6 79 1.3 NNW 52 70 28 38 994.2 - 18.8
02/06:00am 5.1 -5.6 2.3 82 1.1 NNW 48 59 26 32 994.2 994.5 18.8
02/05:30am 4.8 -5.0 2.5 85 0.9 NNW 43 56 23 30 994.6 - 18.8
02/05:00am 4.5 -4.6 2.0 84 1.0 NNW 39 48 21 26 994.8 - 18.8
02/04:43am 4.5 -4.6 2.0 84 1.0 NNW 39 44 21 24 995.1 - 18.8
02/04:30am 4.4 -4.7 2.1 85 0.9 N 39 44 21 24 995.2 - 18.8
02/04:23am 4.3 -4.8 1.8 84 1.0 N 39 43 21 23 995.2 - 18.8
02/04:21am 4.3 -4.8 1.7 83 1.0 NNW 39 43 21 23 995.2 - 18.8
02/04:13am 4.2 -4.5 1.7 84 1.0 NNE 37 43 20 23 995.3 - 18.8
02/04:11am 4.2 -4.5 1.7 84 1.0 N 37 41 20 22 995.3 - 18.8
02/04:00am 4.1 -4.3 1.6 84 1.0 WNW 35 44 19 24 995.4 - 18.8
02/03:30am 3.9 -4.1 1.6 85 0.9 WNW 33 44 18 24 995.6 - 18.8
02/03:00am 3.9 -4.4 1.9 87 0.8 W 35 44 19 24 995.7 996.0 18.8
02/02:30am 3.9 -4.4 1.9 87 0.8 W 35 43 19 23 995.7 - 18.8
02/02:00am 3.9 -3.8 2.1 88 0.7 W 32 41 17 22 995.4 - 18.8
02/01:30am 3.8 -4.0 1.8 87 0.8 W 32 39 17 21 995.2 - 18.8
02/01:00am 3.9 -4.5 1.3 83 1.0 W 35 44 19 24 995.1 - 18.8
02/12:30am 4.0 -5.1 2.0 87 0.8 W 39 48 21 26 995.1 - 18.8
02/12:00am 4.3 -4.2 3.0 91 0.5 W 37 44 20 24 994.5 994.8 18.8
 
Date/Time
EST
Temp
°C
App
Temp
°C
Dew
Point
Rel
Hum
%
Delta-T
°C
Wind Press
QNH
hPa
Press
MSL
hPa
Rain
since 9 am
mm
Dir
 
Spd
km/h
Gust
km/h
Spd
kts
Gust
kts
01/11:30pm 4.6 -4.2 3.6 93 0.4 W 39 50 21 27 994.2 - 18.8
01/11:00pm 4.7 -4.1 3.7 93 0.4 W 39 50 21 27 994.1 - 18.8
01/10:30pm 4.8 -2.3 3.6 92 0.5 W 30 43 16 23 993.4 - 18.8
01/10:05pm 4.8 -4.3 3.8 93 0.4 W 41 59 22 32 993.0 - 18.8
01/10:00pm 4.8 -4.7 3.8 93 0.4 W 43 59 23 32 993.2 - 18.8
01/09:30pm 5.4 -4.9 4.7 95 0.3 W 48 63 26 34 993.0 - 18.4
01/09:19pm 5.7 -4.2 5.0 95 0.3 W 46 54 25 29 992.9 - 18.2
01/09:14pm 6.3 -3.4 5.7 96 0.3 WNW 46 61 25 33 992.8 - 18.0
01/09:00pm 7.0 -2.5 6.6 97 0.2 N 46 56 25 30 992.2 992.5 17.8
01/08:30pm 6.9 -1.3 6.5 97 0.2 N 39 48 21 26 992.8 - 17.0
01/08:00pm 7.0 -0.4 6.6 97 0.2 N 35 44 19 24 993.4 - 16.0
01/07:30pm 6.8 -0.7 6.4 97 0.2 N 35 46 19 25 994.0 - 15.2
01/07:00pm 6.8 -1.8 6.4 97 0.2 N 41 50 22 27 994.6 - 14.6
01/06:30pm 6.7 -1.9 6.3 97 0.2 N 41 54 22 29 995.3 - 14.2
01/06:00pm 6.7 -1.6 6.3 97 0.2 N 39 46 21 25 995.8 996.1 13.8
01/05:30pm 6.8 -1.4 6.4 97 0.2 N 39 48 21 26 996.2 - 13.4
01/05:00pm 6.6 0.0 6.2 97 0.2 N 30 33 16 18 996.7 - 13.2
01/04:30pm 6.7 0.2 6.3 97 0.2 N 30 35 16 19 997.2 - 13.2
01/04:00pm 6.6 0.0 6.2 97 0.2 N 30 35 16 19 997.7 - 13.2
01/03:30pm 6.7 0.5 6.3 97 0.2 N 28 35 15 19 998.1 - 13.2
01/03:00pm 6.9 -0.6 6.3 96 0.3 N 35 41 19 22 998.9 999.2 13.0
01/02:30pm 6.7 -1.6 6.1 96 0.3 NNE 39 50 21 27 999.3 - 12.2
01/02:00pm 6.5 -0.1 5.9 96 0.3 N 30 48 16 26 999.6 - 11.2
01/01:56pm 6.4 0.1 5.8 96 0.3 N 28 48 15 26 999.7 - 11.0
01/01:30pm 5.5 1.1 4.8 95 0.3 NNW 17 26 9 14 1000.0 - 10.2
01/01:00pm 4.9 0.7 4.0 94 0.4 ESE 15 46 8 25 1001.1 - 8.4
01/12:30pm 4.5 -3.6 3.5 93 0.4 E 35 67 19 36 1001.6 - 7.2
01/12:00pm 4.4 -5.2 3.2 92 0.5 E 43 70 23 38 1002.8 1003.1 5.8
01/11:30am 4.1 -4.1 2.9 92 0.5 E 35 63 19 34 1003.9 - 4.6
01/11:00am 3.7 -4.9 2.5 92 0.5 E 37 57 20 31 1005.0 - 3.2
01/10:30am 3.5 -4.8 2.2 91 0.5 E 35 61 19 33 1005.7 - 2.0
01/10:00am 3.3 -4.6 2.0 91 0.5 E 33 52 18 28 1006.1 - 1.2
01/09:30am 3.3 -4.7 1.8 90 0.6 E 33 52 18 28 1006.5 - 0.4
01/09:03am 3.2 -6.3 1.6 89 0.6 E 41 59 22 32 1007.0 - 0.0
01/09:00am 3.4 -6.6 1.9 90 0.6 ESE 44 59 24 32 1006.9 1007.2 9.4
01/08:30am 3.0 -8.3 1.5 90 0.6 ESE 50 61 27 33 1007.3 - 9.4
01/08:00am 2.8 -8.1 1.5 91 0.5 ESE 48 57 26 31 1007.7 - 9.4
01/07:30am 2.2 -9.1 0.9 91 0.5 ESE 50 61 27 33 1008.0 - 9.4
01/07:00am 2.1 -9.7 0.6 90 0.6 ESE 52 65 28 35 1008.3 - 9.4
01/06:30am 2.1 -8.5 0.8 91 0.5 ESE 46 59 25 32 1008.4 - 9.4
01/06:00am 2.0 -8.6 1.0 93 0.4 ESE 46 56 25 30 1008.2 1008.5 9.4
01/05:30am 2.0 -8.6 1.0 93 0.4 ESE 46 56 25 30 1008.2 - 9.4
01/05:00am 1.8 -8.5 0.6 92 0.4 ESE 44 54 24 29 1008.3 - 9.4
01/04:30am 2.0 -8.2 0.8 92 0.4 ESE 44 52 24 28 1008.4 - 9.4
01/04:00am 2.0 -8.1 0.5 90 0.6 ESE 43 50 23 27 1008.5 - 9.4
01/03:30am 2.3 -7.4 0.8 90 0.6 ESE 41 48 22 26 1008.4 - 9.4
01/03:00am 2.7 -6.9 1.2 90 0.6 ESE 41 50 22 27 1008.2 1008.5 9.4
01/02:30am 2.8 -6.4 1.2 89 0.6 ESE 39 48 21 26 1007.8 - 9.4
01/02:00am 2.8 -6.4 1.2 89 0.6 SE 39 46 21 25 1007.8 - 9.4
01/01:30am 2.6 -6.6 1.3 91 0.5 SE 39 46 21 25 1008.1 - 9.4
01/01:00am 2.1 -6.8 0.9 92 0.5 SE 37 44 20 24 1008.0 - 9.4
01/12:30am 2.1 -6.4 0.9 92 0.5 SE 35 43 19 23 1007.8 - 9.4
01/12:00am 2.4 -6.1 1.2 92 0.5 SE 35 43 19 23 1007.6 1007.9 9.4
 
Date/Time
EST
Temp
°C
App
Temp
°C
Dew
Point
Rel
Hum
%
Delta-T
°C
Wind Press
QNH
hPa
Press
MSL
hPa
Rain
since 9 am
mm
Dir
 
Spd
km/h
Gust
km/h
Spd
kts
Gust
kts
31/11:30pm 2.5 -5.4 1.3 92 0.5 SE 32 39 17 21 1007.4 - 9.4
31/11:00pm 2.5 -5.0 1.5 93 0.4 SE 30 35 16 19 1007.5 - 9.4
31/10:30pm 2.7 -4.3 1.7 93 0.4 SE 28 39 15 21 1007.3 - 9.4
31/10:00pm 2.8 -5.2 1.9 94 0.4 SE 33 43 18 23 1006.8 - 9.4
31/09:30pm 3.1 -4.6 2.4 95 0.3 SE 32 41 17 22 1006.7 - 9.4
31/09:00pm 3.3 -3.6 2.6 95 0.3 SSE 28 33 15 18 1006.5 1006.8 9.4
31/08:30pm 3.1 -4.2 2.5 96 0.2 SSE 30 33 16 18 1006.0 - 9.4
31/08:00pm 3.1 -3.8 2.5 96 0.2 SSE 28 33 15 18 1005.8 - 9.4
31/07:30pm 2.7 -3.5 2.1 96 0.2 SSE 24 32 13 17 1005.5 - 9.4
31/07:00pm 2.4 -3.5 1.8 96 0.2 SSE 22 26 12 14 1005.2 - 9.4
31/06:30pm 2.0 -4.3 1.4 96 0.2 SSE 24 30 13 16 1004.9 - 9.2
31/06:00pm 2.0 -5.1 1.4 96 0.2 SSE 28 33 15 18 1004.5 1004.8 8.4
31/05:30pm 2.1 -5.4 1.5 96 0.2 SSE 30 35 16 19 1004.2 - 7.6
31/05:00pm 2.3 -5.7 1.7 96 0.2 S 33 41 18 22 1003.6 - 6.8
31/04:30pm 2.8 -4.6 2.1 95 0.3 S 30 37 16 20 1003.3 - 6.2
31/04:00pm 3.5 -3.4 2.8 95 0.3 S 28 35 15 19 1003.0 - 5.6
31/03:30pm 5.9 0.6 5.2 95 0.3 W 22 28 12 15 1002.6 - 5.0
31/03:28pm 5.9 0.6 5.2 95 0.3 W 22 28 12 15 1002.6 - 5.0
31/03:06pm 6.4 -2.7 5.7 95 0.3 WNW 43 52 23 28 1002.2 - 3.8
31/03:00pm 6.6 -2.7 5.9 95 0.3 NNW 44 57 24 31 1001.5 1001.8 3.6
31/02:30pm 6.6 -3.8 5.9 95 0.3 NNW 50 63 27 34 1001.5 - 2.6
31/02:00pm 6.6 -5.0 5.9 95 0.3 NNW 56 69 30 37 1001.6 - 1.6
31/01:30pm 6.7 -5.5 5.8 94 0.4 NNW 59 69 32 37 1001.8 - 1.0
31/01:00pm 6.6 -5.6 5.7 94 0.4 NNW 59 70 32 38 1002.2 - 0.6
31/12:30pm 6.5 -5.3 5.6 94 0.4 NNW 57 74 31 40 1002.6 - 0.2
31/12:00pm 6.7 -5.1 5.8 94 0.4 NNW 57 69 31 37 1003.0 1003.3 0.0
31/11:30am 6.7 -5.1 5.8 94 0.4 NNW 57 70 31 38 1003.4 - 0.0
31/11:00am 6.6 -5.5 5.9 95 0.3 NNW 59 70 32 38 1004.2 - 0.0
31/10:30am 6.7 -5.4 6.0 95 0.3 NNW 59 74 32 40 1004.4 - 0.0
31/10:00am 6.7 -4.5 6.0 95 0.3 NNW 54 69 29 37 1004.8 - 0.0
31/09:45am 6.6 -4.2 5.9 95 0.3 NNW 52 70 28 38 1005.1 - 0.0

Other Formats:

Comma delimited format used in spreadsheet applications
http://www.bom.gov.au/fwo/IDT60801/IDT60801.94998.axf

JavaScript Object Notation format (JSON) in row-major order
http://www.bom.gov.au/fwo/IDT60801/IDT60801.94998.json